createdAt,value
2023-02-04T00:00:22.883Z,76.83
2023-02-04T00:02:49.882Z,76.82
2023-02-04T00:05:19.912Z,76.82
2023-02-04T00:07:46.300Z,77.68
2023-02-04T00:10:13.037Z,77.85
2023-02-04T00:12:39.404Z,78.14
2023-02-04T00:15:06.468Z,77.93
2023-02-04T00:17:32.878Z,78.11
2023-02-04T00:19:59.265Z,78.19
2023-02-04T00:22:28.415Z,78.87
2023-02-04T00:24:54.932Z,77.91
2023-02-04T00:27:21.359Z,78.58
2023-02-04T00:29:47.711Z,78.24
2023-02-04T00:32:14.156Z,78.12
2023-02-04T00:34:41.071Z,77.77
2023-02-04T00:37:07.745Z,77.58
2023-02-04T00:39:34.157Z,78.29
2023-02-04T00:42:00.791Z,77.24
2023-02-04T00:44:27.219Z,78.15
2023-02-04T00:46:53.639Z,78.13
2023-02-04T00:49:19.980Z,78.46
2023-02-04T00:51:46.613Z,77.94
2023-02-04T00:54:15.766Z,77.25
2023-02-04T00:56:43.407Z,77.79
2023-02-04T00:59:10.250Z,77.12
2023-02-04T01:01:37.244Z,77.91
2023-02-04T01:04:03.923Z,77.55
2023-02-04T01:06:30.314Z,76.90
2023-02-04T01:08:56.650Z,76.49
2023-02-04T01:11:23.111Z,76.63
2023-02-04T01:13:49.431Z,77.35
2023-02-04T01:16:15.838Z,77.41
2023-02-04T01:18:42.252Z,76.71
2023-02-04T01:21:08.575Z,76.85
2023-02-04T01:23:34.923Z,76.78
2023-02-04T01:26:01.330Z,76.81
2023-02-04T01:28:27.996Z,76.78
2023-02-04T01:30:54.511Z,76.84
2023-02-04T01:33:21.029Z,76.51
2023-02-04T01:35:47.409Z,76.86
2023-02-04T01:38:13.935Z,76.97
2023-02-04T01:40:41.925Z,76.58
2023-02-04T01:43:09.000Z,76.95
2023-02-04T01:45:35.867Z,77.15
2023-02-04T01:48:07.440Z,77.77
2023-02-04T01:50:34.552Z,77.38
2023-02-04T01:53:01.279Z,78.58
2023-02-04T01:55:31.252Z,78.44
2023-02-04T01:57:58.965Z,77.59
2023-02-04T02:00:31.508Z,77.82
2023-02-04T02:02:59.419Z,78.96
2023-02-04T02:05:32.729Z,78.86
2023-02-04T02:08:02.041Z,80.05
2023-02-04T02:10:29.608Z,79.82
2023-02-04T02:12:57.146Z,80.21
2023-02-04T02:15:24.701Z,79.57
2023-02-04T02:17:53.087Z,79.83
2023-02-04T02:20:22.293Z,80.25
2023-02-04T02:23:46.149Z,80.54
2023-02-04T02:26:13.836Z,81.04
2023-02-04T02:28:40.316Z,80.79
2023-02-04T02:31:07.184Z,81.08
2023-02-04T02:33:34.137Z,80.53
2023-02-04T02:36:00.805Z,81.27
2023-02-04T02:38:27.252Z,81.34
2023-02-04T02:40:54.416Z,81.53
2023-02-04T02:43:23.870Z,82.29
2023-02-04T02:45:51.233Z,82.14
2023-02-04T02:48:18.120Z,82.17
2023-02-04T02:50:45.163Z,81.84
2023-02-04T02:53:14.197Z,81.78
2023-02-04T02:55:40.784Z,81.38
2023-02-04T02:58:15.503Z,82.07
2023-02-04T03:00:41.872Z,82.65
2023-02-04T03:03:17.882Z,82.57
2023-02-04T03:05:47.876Z,82.53
2023-02-04T03:08:16.343Z,83.02
2023-02-04T03:10:44.128Z,82.53
2023-02-04T03:13:13.529Z,82.37
2023-02-04T03:15:41.265Z,82.33
2023-02-04T03:18:07.856Z,82.46
2023-02-04T03:20:35.121Z,82.77
2023-02-04T03:23:01.666Z,82.46
2023-02-04T03:25:28.735Z,82.71
2023-02-04T03:27:58.220Z,83.25
2023-02-04T03:30:25.995Z,83.32
2023-02-04T03:32:52.746Z,83.42
2023-02-04T03:35:19.923Z,82.87
2023-02-04T03:37:46.358Z,83.39
2023-02-04T03:40:13.183Z,83.27
2023-02-04T03:42:39.664Z,83.06
2023-02-04T03:45:06.190Z,83.35
2023-02-04T03:47:32.821Z,83.72
2023-02-04T03:49:59.228Z,83.08
2023-02-04T03:52:25.613Z,83.42
2023-02-04T03:54:51.984Z,82.87
2023-02-04T03:57:18.386Z,83.66
2023-02-04T03:59:44.758Z,83.02
2023-02-04T04:02:11.075Z,83.22
2023-02-04T04:04:37.408Z,82.92
2023-02-04T04:07:03.824Z,83.18
2023-02-04T04:09:30.184Z,83.06
2023-02-04T04:11:56.654Z,82.92
2023-02-04T04:14:23.034Z,82.98
2023-02-04T04:16:49.418Z,82.58
2023-02-04T04:19:15.738Z,83.37
2023-02-04T04:21:42.094Z,83.56
2023-02-04T04:24:08.457Z,83.15
2023-02-04T04:26:34.886Z,83.13
2023-02-04T04:29:01.232Z,83.08
2023-02-04T04:31:27.689Z,83.37
2023-02-04T04:33:54.111Z,83.42
2023-02-04T04:36:20.434Z,83.86
2023-02-04T04:38:46.764Z,83.61
2023-02-04T04:41:13.108Z,83.88
2023-02-04T04:43:39.450Z,84.21
2023-02-04T04:46:05.912Z,83.60
2023-02-04T04:48:32.378Z,83.29
2023-02-04T04:50:58.777Z,83.17
2023-02-04T04:53:25.150Z,83.19
2023-02-04T04:55:51.493Z,83.02
2023-02-04T04:58:17.834Z,82.87
2023-02-04T05:00:44.238Z,83.00
2023-02-04T05:03:10.764Z,83.39
2023-02-04T05:05:40.684Z,83.65
2023-02-04T05:08:13.250Z,83.34
2023-02-04T05:10:40.442Z,83.54
2023-02-04T05:13:06.878Z,83.31
2023-02-04T05:15:33.524Z,83.74
2023-02-04T05:17:59.936Z,83.71
2023-02-04T05:20:26.404Z,83.95
2023-02-04T05:22:53.297Z,83.65
2023-02-04T05:25:19.708Z,84.23
2023-02-04T05:27:46.108Z,83.96
2023-02-04T05:30:14.049Z,84.11
2023-02-04T05:32:41.062Z,83.80
2023-02-04T05:35:08.271Z,84.07
2023-02-04T05:37:34.648Z,83.96
2023-02-04T05:40:01.010Z,84.43
2023-02-04T05:42:27.400Z,83.98
2023-02-04T05:44:53.736Z,84.01
2023-02-04T05:47:20.452Z,84.12
2023-02-04T05:49:46.984Z,83.97
2023-02-04T05:52:13.330Z,84.27
2023-02-04T05:54:39.693Z,84.11
2023-02-04T05:57:06.851Z,84.29
2023-02-04T05:59:33.206Z,84.55
2023-02-04T06:01:59.550Z,84.37
2023-02-04T06:04:25.919Z,84.72
2023-02-04T06:06:52.467Z,84.56
2023-02-04T06:09:18.851Z,84.83
2023-02-04T06:11:45.247Z,84.79
2023-02-04T06:14:11.660Z,84.69
2023-02-04T06:16:38.068Z,84.96
2023-02-04T06:19:04.454Z,84.83
2023-02-04T06:21:30.849Z,84.78
2023-02-04T06:23:57.173Z,84.83
2023-02-04T06:26:24.667Z,84.54
2023-02-04T06:28:51.099Z,84.71
2023-02-04T06:31:17.481Z,84.69
2023-02-04T06:33:43.883Z,84.58
2023-02-04T06:36:10.257Z,84.62
2023-02-04T06:38:36.625Z,85.32
2023-02-04T06:41:02.953Z,85.09
2023-02-04T06:43:29.348Z,85.00
2023-02-04T06:45:55.764Z,84.86
2023-02-04T06:48:22.163Z,84.67
2023-02-04T06:50:48.516Z,84.98
2023-02-04T06:53:14.913Z,85.20
2023-02-04T06:55:41.276Z,85.42
2023-02-04T06:58:07.658Z,85.52
2023-02-04T07:00:34.378Z,85.58
2023-02-04T07:03:01.032Z,85.56
2023-02-04T07:05:27.417Z,85.89
2023-02-04T07:07:53.768Z,85.75
2023-02-04T07:10:23.020Z,85.79
2023-02-04T07:12:49.339Z,86.46
2023-02-04T07:15:16.112Z,85.67
2023-02-04T07:17:42.433Z,86.96
2023-02-04T07:20:10.365Z,85.95
2023-02-04T07:22:36.724Z,86.00
2023-02-04T07:25:03.804Z,85.84
2023-02-04T07:27:30.534Z,85.84
2023-02-04T07:29:56.873Z,86.38
2023-02-04T07:32:23.289Z,86.14
2023-02-04T07:34:49.658Z,86.54
2023-02-04T07:37:16.065Z,86.53
2023-02-04T07:39:42.397Z,86.19
2023-02-04T07:42:09.120Z,86.78
2023-02-04T07:44:35.517Z,86.41
2023-02-04T07:47:01.891Z,87.26
2023-02-04T07:49:28.830Z,86.80
2023-02-04T07:51:55.267Z,87.10
2023-02-04T07:54:23.053Z,87.48
2023-02-04T07:56:49.508Z,87.87
2023-02-04T07:59:15.901Z,87.06
2023-02-04T08:01:42.277Z,88.13
2023-02-04T08:04:08.677Z,87.87
2023-02-04T08:06:35.103Z,87.75
2023-02-04T08:09:01.431Z,87.67
2023-02-04T08:11:53.629Z,87.46
2023-02-04T08:14:18.159Z,87.07
2023-02-04T08:16:44.530Z,86.92
2023-02-04T08:19:10.959Z,87.75
2023-02-04T08:21:37.333Z,87.16
2023-02-04T08:24:04.212Z,86.69
2023-02-04T08:26:30.675Z,87.56
2023-02-04T08:28:57.032Z,88.31
2023-02-04T08:31:23.513Z,88.42
2023-02-04T08:33:49.922Z,87.69
2023-02-04T08:36:16.718Z,87.35
2023-02-04T08:38:44.559Z,88.20
2023-02-04T08:41:11.205Z,87.87
2023-02-04T08:43:37.658Z,87.20
2023-02-04T08:46:05.467Z,88.64
2023-02-04T08:48:31.865Z,87.87
2023-02-04T08:50:58.256Z,87.11
2023-02-04T08:53:24.660Z,86.15
2023-02-04T08:55:51.030Z,86.15
2023-02-04T08:58:17.377Z,85.01
2023-02-04T09:00:43.701Z,84.43
2023-02-04T09:03:10.399Z,84.23
2023-02-04T09:05:39.814Z,83.78
2023-02-04T09:08:06.167Z,83.17
2023-02-04T09:10:32.846Z,83.12
2023-02-04T09:12:59.434Z,82.84
2023-02-04T09:15:25.951Z,82.78
2023-02-04T09:18:04.356Z,81.55
2023-02-04T09:20:31.087Z,81.78
2023-02-04T09:22:57.642Z,81.53
2023-02-04T09:25:24.042Z,81.89
2023-02-04T09:27:50.502Z,81.38
2023-02-04T09:30:17.124Z,80.60
2023-02-04T09:32:43.476Z,79.91
2023-02-04T09:35:09.937Z,79.87
2023-02-04T09:37:36.266Z,79.79
2023-02-04T09:40:02.734Z,79.39
2023-02-04T09:42:29.217Z,79.84
2023-02-04T09:44:55.650Z,79.67
2023-02-04T09:47:25.280Z,78.74
2023-02-04T09:49:52.049Z,78.39
2023-02-04T09:52:18.670Z,78.71
2023-02-04T09:54:45.230Z,78.08
2023-02-04T09:57:19.590Z,77.68
2023-02-04T09:59:46.311Z,77.71
2023-02-04T10:02:21.549Z,77.52
2023-02-04T10:04:48.401Z,77.08
2023-02-04T10:07:21.957Z,76.85
2023-02-04T10:09:50.106Z,76.10
2023-02-04T10:12:16.609Z,75.30
2023-02-04T10:14:43.699Z,74.65
2023-02-04T10:17:11.516Z,75.15
2023-02-04T10:19:38.005Z,74.74
2023-02-04T10:22:16.970Z,74.38
2023-02-04T10:24:43.532Z,74.44
2023-02-04T10:27:11.911Z,74.10
2023-02-04T10:29:40.253Z,73.53
2023-02-04T10:32:06.742Z,72.72
2023-02-04T10:34:43.708Z,72.65
2023-02-04T10:37:21.269Z,72.91
2023-02-04T10:39:49.644Z,72.21
2023-02-04T10:42:27.581Z,72.34
2023-02-04T10:44:54.835Z,71.30
2023-02-04T10:47:24.529Z,70.93
2023-02-04T10:50:00.286Z,70.99
2023-02-04T10:52:35.133Z,70.61
2023-02-04T10:55:04.422Z,69.75
2023-02-04T10:57:33.045Z,67.67
2023-02-04T11:00:02.324Z,67.23
2023-02-04T11:02:48.990Z,66.98
2023-02-04T11:05:21.437Z,66.32
2023-02-04T11:07:49.543Z,66.36
2023-02-04T11:10:22.052Z,65.85
2023-02-04T11:12:54.486Z,67.12
2023-02-04T11:15:36.172Z,65.83
2023-02-04T11:18:04.870Z,66.73
2023-02-04T11:20:34.148Z,65.48
2023-02-04T11:23:25.561Z,65.93
2023-02-04T11:26:32.604Z,65.84
2023-02-04T11:28:58.879Z,66.54
2023-02-04T11:31:27.155Z,65.41
2023-02-04T11:34:22.953Z,64.69
2023-02-04T11:37:07.974Z,63.99
2023-02-04T11:39:42.329Z,63.93
2023-02-04T11:42:23.151Z,64.24
2023-02-04T11:44:54.669Z,62.49
2023-02-04T11:47:23.669Z,62.75
2023-02-04T11:49:55.973Z,60.97
2023-02-04T11:52:22.465Z,59.59
2023-02-04T11:54:59.589Z,59.89
2023-02-04T11:57:26.822Z,57.63
2023-02-04T11:59:54.210Z,57.20
2023-02-04T12:02:23.875Z,56.53
2023-02-04T12:05:12.610Z,57.82
2023-02-04T12:07:39.947Z,58.35
2023-02-04T12:10:24.120Z,59.29
2023-02-04T12:12:57.572Z,59.63
2023-02-04T12:15:36.139Z,60.25
2023-02-04T12:18:04.574Z,61.07
2023-02-04T12:20:31.149Z,59.33
2023-02-04T12:22:57.656Z,58.86
2023-02-04T12:25:24.531Z,58.89
2023-02-04T12:27:51.705Z,57.33
2023-02-04T12:30:20.552Z,57.61
2023-02-04T12:32:46.921Z,58.02
2023-02-04T12:35:13.830Z,56.93
2023-02-04T12:37:41.710Z,56.90
2023-02-04T12:40:09.974Z,57.15
2023-02-04T12:42:36.408Z,58.07
2023-02-04T12:45:02.947Z,57.87
2023-02-04T12:47:29.312Z,57.51
2023-02-04T12:49:55.673Z,58.48
2023-02-04T12:52:22.016Z,57.29
2023-02-04T12:54:48.572Z,57.45
2023-02-04T12:57:19.579Z,56.58
2023-02-04T12:59:46.949Z,57.33
2023-02-04T13:02:13.451Z,57.83
2023-02-04T13:04:40.464Z,57.91
2023-02-04T13:07:10.316Z,57.13
2023-02-04T13:09:37.093Z,56.70
2023-02-04T13:12:04.167Z,57.48
2023-02-04T13:14:32.512Z,55.81
2023-02-04T13:16:59.453Z,55.79
2023-02-04T13:19:25.821Z,55.75
2023-02-04T13:21:52.185Z,55.33
2023-02-04T13:24:18.524Z,55.92
2023-02-04T13:26:44.948Z,55.94
2023-02-04T13:29:11.800Z,55.92
2023-02-04T13:31:38.192Z,55.66
2023-02-04T13:34:04.560Z,56.18
2023-02-04T13:36:30.876Z,55.19
2023-02-04T13:39:01.008Z,56.59
2023-02-04T13:41:28.224Z,56.31
2023-02-04T13:43:54.730Z,56.05
2023-02-04T13:46:21.913Z,56.23
2023-02-04T13:48:48.287Z,56.39
2023-02-04T13:51:14.664Z,56.15
2023-02-04T13:53:41.025Z,56.69
2023-02-04T13:56:07.567Z,56.88
2023-02-04T13:58:34.111Z,58.27
2023-02-04T14:01:02.917Z,57.68
2023-02-04T14:03:30.047Z,57.04
2023-02-04T14:05:56.747Z,57.50
2023-02-04T14:08:23.699Z,57.00
2023-02-04T14:10:50.097Z,57.84
2023-02-04T14:13:16.812Z,57.55
2023-02-04T14:15:43.152Z,56.53
2023-02-04T14:18:10.922Z,56.64
2023-02-04T14:20:37.696Z,57.00
2023-02-04T14:23:05.856Z,55.87
2023-02-04T14:25:32.228Z,55.61
2023-02-04T14:28:00.177Z,55.37
2023-02-04T14:30:28.992Z,57.46
2023-02-04T14:32:56.526Z,56.02
2023-02-04T14:35:23.044Z,54.69
2023-02-04T14:37:49.682Z,54.11
2023-02-04T14:40:18.237Z,54.96
2023-02-04T14:42:45.334Z,53.64
2023-02-04T14:45:13.764Z,53.69
2023-02-04T14:47:40.510Z,54.26
2023-02-04T14:50:10.930Z,54.44
2023-02-04T14:52:37.340Z,53.49
2023-02-04T14:55:03.932Z,54.77
2023-02-04T14:57:30.267Z,54.30
2023-02-04T14:59:56.686Z,55.72
2023-02-04T15:02:23.264Z,55.45
2023-02-04T15:04:49.761Z,55.35
2023-02-04T15:07:16.143Z,54.98
2023-02-04T15:09:44.524Z,55.48
2023-02-04T15:12:11.444Z,55.64
2023-02-04T15:14:37.862Z,56.40
2023-02-04T15:17:04.313Z,55.16
2023-02-04T15:19:33.538Z,55.44
2023-02-04T15:22:14.292Z,56.70
2023-02-04T15:24:40.629Z,56.88
2023-02-04T15:27:07.074Z,57.39
2023-02-04T15:29:33.501Z,57.75
2023-02-04T15:32:00.075Z,57.76
2023-02-04T15:34:26.553Z,57.94
2023-02-04T15:36:52.946Z,57.85
2023-02-04T15:39:19.319Z,58.68
2023-02-04T15:41:45.663Z,59.21
2023-02-04T15:44:12.526Z,59.26
2023-02-04T15:46:38.974Z,59.52
2023-02-04T15:49:05.442Z,58.90
2023-02-04T15:51:31.839Z,59.85
2023-02-04T15:53:58.186Z,59.48
2023-02-04T15:56:24.651Z,59.31
2023-02-04T15:58:50.974Z,59.34
2023-02-04T16:01:17.439Z,59.71
2023-02-04T16:03:45.852Z,59.98
2023-02-04T16:06:12.225Z,59.63
2023-02-04T16:08:38.830Z,59.89
2023-02-04T16:11:06.130Z,60.21
2023-02-04T16:13:32.857Z,60.31
2023-02-04T16:15:59.319Z,60.36
2023-02-04T16:18:25.781Z,60.03
2023-02-04T16:20:52.428Z,60.20
2023-02-04T16:23:18.905Z,60.64
2023-02-04T16:25:45.239Z,60.54
2023-02-04T16:28:11.712Z,60.61
2023-02-04T16:30:39.309Z,60.91
2023-02-04T16:33:06.835Z,60.99
2023-02-04T16:35:58.191Z,60.71
2023-02-04T16:38:25.915Z,60.47
2023-02-04T16:40:52.893Z,60.79
2023-02-04T16:43:19.463Z,61.07
2023-02-04T16:45:46.213Z,61.15
2023-02-04T16:48:12.662Z,61.29
2023-02-04T16:50:39.039Z,61.29
2023-02-04T16:53:05.604Z,61.65
2023-02-04T16:55:33.480Z,61.50
2023-02-04T16:58:00.094Z,61.87
2023-02-04T17:00:26.500Z,62.16
2023-02-04T17:02:53.596Z,62.35
2023-02-04T17:05:19.985Z,63.38
2023-02-04T17:07:46.310Z,64.54
2023-02-04T17:10:12.669Z,63.65
2023-02-04T17:12:39.065Z,64.25
2023-02-04T17:15:05.783Z,64.02
2023-02-04T17:17:32.281Z,63.93
2023-02-04T17:20:00.310Z,63.80
2023-02-04T17:22:26.840Z,64.15
2023-02-04T17:24:54.741Z,64.06
2023-02-04T17:27:21.274Z,64.15
2023-02-04T17:29:47.814Z,64.55
2023-02-04T17:32:14.250Z,64.81
2023-02-04T17:34:40.807Z,64.91
2023-02-04T17:37:07.313Z,64.96
2023-02-04T17:39:33.932Z,65.39
2023-02-04T17:42:03.199Z,65.41
2023-02-04T17:44:30.119Z,65.53
2023-02-04T17:46:59.026Z,65.70
2023-02-04T17:49:27.983Z,65.75
2023-02-04T17:51:54.678Z,66.05
2023-02-04T17:54:21.250Z,66.18
2023-02-04T17:56:56.904Z,66.41
2023-02-04T17:59:23.981Z,66.50
2023-02-04T18:01:58.109Z,66.94
2023-02-04T18:04:25.186Z,66.97
2023-02-04T18:06:52.094Z,67.31
2023-02-04T18:09:18.757Z,67.35
2023-02-04T18:11:45.898Z,67.89
2023-02-04T18:14:17.487Z,67.91
2023-02-04T18:16:44.700Z,68.39
2023-02-04T18:19:21.839Z,68.54
2023-02-04T18:21:49.539Z,69.10
2023-02-04T18:24:30.056Z,69.07
2023-02-04T18:27:01.065Z,68.73
2023-02-04T18:29:32.904Z,69.09
2023-02-04T18:32:16.112Z,68.91
2023-02-04T18:34:53.025Z,68.50
2023-02-04T18:37:36.543Z,68.63
2023-02-04T18:40:09.008Z,68.54
2023-02-04T18:42:43.798Z,68.83
2023-02-04T18:45:22.977Z,69.24
2023-02-04T18:47:49.966Z,69.93
2023-02-04T18:50:28.163Z,69.90
2023-02-04T18:52:54.554Z,70.29
2023-02-04T18:55:34.772Z,69.36
2023-02-04T18:58:40.723Z,69.45
2023-02-04T19:01:10.130Z,69.97
2023-02-04T19:03:45.475Z,70.96
2023-02-04T19:06:25.486Z,70.71
2023-02-04T19:08:52.596Z,70.08
2023-02-04T19:11:41.565Z,70.76
2023-02-04T19:14:33.064Z,71.18
2023-02-04T19:17:22.351Z,70.97
2023-02-04T19:19:57.852Z,71.36
2023-02-04T19:22:46.070Z,71.55
2023-02-04T19:25:25.180Z,71.43
2023-02-04T19:27:54.923Z,71.95
2023-02-04T19:30:27.636Z,71.30
2023-02-04T19:33:02.177Z,71.31
2023-02-04T19:35:39.254Z,71.31
2023-02-04T19:38:22.545Z,71.62
2023-02-04T19:40:51.580Z,72.22
2023-02-04T19:43:26.809Z,72.27
2023-02-04T19:45:54.335Z,72.18
2023-02-04T19:48:36.346Z,72.27
2023-02-04T19:51:28.075Z,71.74
2023-02-04T19:54:39.203Z,71.87
2023-02-04T19:57:25.658Z,71.67
2023-02-04T19:59:56.432Z,71.52
2023-02-04T20:02:36.472Z,71.64
2023-02-04T20:05:15.820Z,71.88
2023-02-04T20:07:42.450Z,71.59
2023-02-04T20:10:25.943Z,71.53
2023-02-04T20:12:59.352Z,71.71
2023-02-04T20:15:25.984Z,70.95
2023-02-04T20:17:52.855Z,72.48
2023-02-04T20:20:21.430Z,71.82
2023-02-04T20:22:48.872Z,71.82
2023-02-04T20:25:36.750Z,72.86
2023-02-04T20:28:15.459Z,73.66
2023-02-04T20:30:41.985Z,73.78
2023-02-04T20:33:44.980Z,73.89
2023-02-04T20:36:28.390Z,73.09
2023-02-04T20:39:17.331Z,72.70
2023-02-04T20:41:43.670Z,73.64
2023-02-04T20:44:20.529Z,74.15
2023-02-04T20:46:46.914Z,74.49
2023-02-04T20:49:25.336Z,74.20
2023-02-04T20:51:59.156Z,74.09
2023-02-04T20:54:29.484Z,74.27
2023-02-04T20:57:14.616Z,74.18
2023-02-04T20:59:42.638Z,74.17
2023-02-04T21:02:20.881Z,74.13
2023-02-04T21:04:51.942Z,74.17
2023-02-04T21:07:22.732Z,74.09
2023-02-04T21:09:49.616Z,73.95
2023-02-04T21:12:16.034Z,74.11
2023-02-04T21:14:42.610Z,73.94
2023-02-04T21:17:08.961Z,73.57
2023-02-04T21:19:35.411Z,74.27
2023-02-04T21:22:02.228Z,74.82
2023-02-04T21:24:31.404Z,75.11
2023-02-04T21:26:57.760Z,75.57
2023-02-04T21:29:25.958Z,75.90
2023-02-04T21:31:54.258Z,75.55
2023-02-04T21:34:20.708Z,75.50
2023-02-04T21:36:47.117Z,75.68
2023-02-04T21:39:13.557Z,75.43
2023-02-04T21:41:39.895Z,75.28
2023-02-04T21:44:06.235Z,74.97
2023-02-04T21:46:33.009Z,75.32
2023-02-04T21:48:59.650Z,75.68
2023-02-04T21:51:27.923Z,75.92
2023-02-04T21:53:54.258Z,76.07
2023-02-04T21:56:20.589Z,76.02
2023-02-04T21:58:46.901Z,76.66
2023-02-04T22:01:15.566Z,76.56
2023-02-04T22:03:41.933Z,76.36
2023-02-04T22:06:08.319Z,77.13
2023-02-04T22:08:34.656Z,76.85
2023-02-04T22:11:01.005Z,76.48
2023-02-04T22:13:27.361Z,76.61
2023-02-04T22:15:53.711Z,77.31
2023-02-04T22:18:20.680Z,77.46
2023-02-04T22:20:47.025Z,77.83
2023-02-04T22:23:13.367Z,77.72
2023-02-04T22:25:39.703Z,78.22
2023-02-04T22:28:06.056Z,78.10
2023-02-04T22:30:32.412Z,78.01
2023-02-04T22:33:00.653Z,79.19
2023-02-04T22:35:29.624Z,78.92
2023-02-04T22:37:55.943Z,78.86
2023-02-04T22:40:22.268Z,78.77
2023-02-04T22:42:48.603Z,78.98
2023-02-04T22:45:14.960Z,80.67
2023-02-04T22:47:41.344Z,81.21
2023-02-04T22:50:08.519Z,81.43
2023-02-04T22:52:34.975Z,81.72
2023-02-04T22:55:01.392Z,81.74
2023-02-04T22:57:27.766Z,82.46
2023-02-04T22:59:54.081Z,82.57
2023-02-04T23:02:20.434Z,82.63
2023-02-04T23:04:46.771Z,83.07
2023-02-04T23:07:13.864Z,83.28
2023-02-04T23:09:40.430Z,83.01
2023-02-04T23:12:13.066Z,83.05
2023-02-04T23:14:42.072Z,83.01
2023-02-04T23:17:09.235Z,83.11
2023-02-04T23:19:35.703Z,83.12
2023-02-04T23:22:02.608Z,82.87
2023-02-04T23:24:29.939Z,82.85
2023-02-04T23:26:58.526Z,82.95
2023-02-04T23:29:24.881Z,83.60
2023-02-04T23:31:51.240Z,84.04
2023-02-04T23:34:17.601Z,84.00
2023-02-04T23:36:45.588Z,83.92
2023-02-04T23:39:12.439Z,84.37
2023-02-04T23:41:38.818Z,84.33
2023-02-04T23:44:05.207Z,84.17
2023-02-04T23:46:31.574Z,84.26
2023-02-04T23:48:57.900Z,84.37
2023-02-04T23:51:24.320Z,85.03
2023-02-04T23:53:50.669Z,84.68
2023-02-04T23:56:16.988Z,84.68
2023-02-04T23:58:43.374Z,85.34
